sensor_id;sensor_type;location;lat;lon;timestamp;pressure;altitude;pressure_sealevel;temperature;humidity
37390;BME280;39679;49.000;8.390;2022-07-18T00:01:18;100920.38;;;25.05;32.65
37390;BME280;39679;49.000;8.390;2022-07-18T00:06:18;100915.91;;;25.05;32.70
37390;BME280;39679;49.000;8.390;2022-07-18T00:11:19;100912.34;;;25.05;32.72
37390;BME280;39679;49.000;8.390;2022-07-18T00:16:20;100915.91;;;25.05;32.84
37390;BME280;39679;49.000;8.390;2022-07-18T00:21:20;100918.59;;;25.05;32.99
37390;BME280;39679;49.000;8.390;2022-07-18T00:26:21;100915.91;;;25.05;32.87
37390;BME280;39679;49.000;8.390;2022-07-18T00:31:21;100915.91;;;25.05;32.85
37390;BME280;39679;49.000;8.390;2022-07-18T00:36:22;100907.03;;;25.03;32.88
37390;BME280;39679;49.000;8.390;2022-07-18T00:41:22;100907.97;;;25.02;32.72
37390;BME280;39679;49.000;8.390;2022-07-18T00:46:24;100916.00;;;25.02;32.85
37390;BME280;39679;49.000;8.390;2022-07-18T00:51:25;100911.66;;;25.00;32.44
37390;BME280;39679;49.000;8.390;2022-07-18T00:56:25;100917.88;;;25.00;33.02
37390;BME280;39679;49.000;8.390;2022-07-18T01:01:26;100919.75;;;24.98;33.12
37390;BME280;39679;49.000;8.390;2022-07-18T01:06:26;100921.63;;;24.96;33.05
37390;BME280;39679;49.000;8.390;2022-07-18T01:11:27;100918.94;;;24.96;33.31
37390;BME280;39679;49.000;8.390;2022-07-18T01:16:27;100919.75;;;24.98;33.18
37390;BME280;39679;49.000;8.390;2022-07-18T01:21:28;100914.13;;;25.04;33.25
37390;BME280;39679;49.000;8.390;2022-07-18T01:26:28;100919.19;;;25.12;33.19
37390;BME280;39679;49.000;8.390;2022-07-18T01:31:29;100919.88;;;25.17;33.54
37390;BME280;39679;49.000;8.390;2022-07-18T01:36:29;100911.63;;;25.21;33.67
37390;BME280;39679;49.000;8.390;2022-07-18T01:41:30;100912.38;;;25.25;33.57
37390;BME280;39679;49.000;8.390;2022-07-18T01:46:30;100904.13;;;25.29;33.28
37390;BME280;39679;49.000;8.390;2022-07-18T01:51:30;100911.19;;;25.32;33.43
37390;BME280;39679;49.000;8.390;2022-07-18T01:56:31;100899.44;;;25.34;33.69
37390;BME280;39679;49.000;8.390;2022-07-18T02:01:31;100911.84;;;25.37;33.55
37390;BME280;39679;49.000;8.390;2022-07-18T02:06:32;100912.66;;;25.39;33.45
37390;BME280;39679;49.000;8.390;2022-07-18T02:11:33;100914.41;;;25.40;33.42
37390;BME280;39679;49.000;8.390;2022-07-18T02:16:33;100911.59;;;25.43;33.52
37390;BME280;39679;49.000;8.390;2022-07-18T02:21:33;100903.50;;;25.45;33.28
37390;BME280;39679;49.000;8.390;2022-07-18T02:26:34;100907.06;;;25.45;33.58
37390;BME280;39679;49.000;8.390;2022-07-18T02:31:34;100905.19;;;25.47;33.36
37390;BME280;39679;49.000;8.390;2022-07-18T02:36:34;100899.84;;;25.47;33.23
37390;BME280;39679;49.000;8.390;2022-07-18T02:41:35;100901.56;;;25.48;33.25
37390;BME280;39679;49.000;8.390;2022-07-18T02:46:35;100908.69;;;25.49;33.58
37390;BME280;39679;49.000;8.390;2022-07-18T02:51:35;100902.38;;;25.50;33.41
37390;BME280;39679;49.000;8.390;2022-07-18T02:56:36;100903.25;;;25.51;33.68
37390;BME280;39679;49.000;8.390;2022-07-18T03:01:36;100907.72;;;25.50;33.70
37390;BME280;39679;49.000;8.390;2022-07-18T03:06:37;100910.34;;;25.52;33.68
37390;BME280;39679;49.000;8.390;2022-07-18T03:11:38;100904.03;;;25.53;33.54
37390;BME280;39679;49.000;8.390;2022-07-18T03:16:38;100892.44;;;25.52;33.58
37390;BME280;39679;49.000;8.390;2022-07-18T03:21:39;100893.31;;;25.53;33.69
37390;BME280;39679;49.000;8.390;2022-07-18T03:26:40;100901.38;;;25.53;33.71
37390;BME280;39679;49.000;8.390;2022-07-18T03:31:40;100898.69;;;25.53;33.70
37390;BME280;39679;49.000;8.390;2022-07-18T03:36:41;100891.50;;;25.53;33.81
37390;BME280;39679;49.000;8.390;2022-07-18T03:41:41;100885.25;;;25.53;33.88
37390;BME280;39679;49.000;8.390;2022-07-18T03:46:41;100890.56;;;25.54;33.63
37390;BME280;39679;49.000;8.390;2022-07-18T03:51:42;100893.25;;;25.54;34.07
37390;BME280;39679;49.000;8.390;2022-07-18T03:56:42;100894.13;;;25.55;33.93
37390;BME280;39679;49.000;8.390;2022-07-18T04:01:43;100893.25;;;25.54;33.69
37390;BME280;39679;49.000;8.390;2022-07-18T04:06:43;100895.00;;;25.55;33.90
37390;BME280;39679;49.000;8.390;2022-07-18T04:11:43;100897.69;;;25.55;33.71
37390;BME280;39679;49.000;8.390;2022-07-18T04:16:43;100906.66;;;25.54;33.84
37390;BME280;39679;49.000;8.390;2022-07-18T04:21:44;100905.72;;;25.55;33.84
37390;BME280;39679;49.000;8.390;2022-07-18T04:26:44;100906.56;;;25.56;33.80
37390;BME280;39679;49.000;8.390;2022-07-18T04:31:44;100907.47;;;25.56;33.88
37390;BME280;39679;49.000;8.390;2022-07-18T04:36:45;100910.16;;;25.56;33.75
37390;BME280;39679;49.000;8.390;2022-07-18T04:41:45;100904.78;;;25.56;33.95
37390;BME280;39679;49.000;8.390;2022-07-18T04:46:46;100900.38;;;25.55;34.20
37390;BME280;39679;49.000;8.390;2022-07-18T04:51:46;100903.06;;;25.55;33.82
37390;BME280;39679;49.000;8.390;2022-07-18T04:56:46;100899.41;;;25.56;33.96
37390;BME280;39679;49.000;8.390;2022-07-18T05:01:47;100905.72;;;25.55;33.95
37390;BME280;39679;49.000;8.390;2022-07-18T05:06:47;100911.09;;;25.55;34.13
37390;BME280;39679;49.000;8.390;2022-07-18T05:11:47;100920.00;;;25.56;33.95
37390;BME280;39679;49.000;8.390;2022-07-18T05:16:48;100917.31;;;25.56;33.89
37390;BME280;39679;49.000;8.390;2022-07-18T05:21:48;100921.84;;;25.55;33.89
37390;BME280;39679;49.000;8.390;2022-07-18T05:26:49;100920.97;;;25.55;34.09
37390;BME280;39679;49.000;8.390;2022-07-18T05:31:49;100918.28;;;25.55;34.07
37390;BME280;39679;49.000;8.390;2022-07-18T05:36:50;100922.75;;;25.54;33.88
37390;BME280;39679;49.000;8.390;2022-07-18T05:41:50;100920.97;;;25.55;34.31
37390;BME280;39679;49.000;8.390;2022-07-18T05:46:50;100920.00;;;25.56;34.08
37390;BME280;39679;49.000;8.390;2022-07-18T05:51:51;100923.63;;;25.55;34.14
37390;BME280;39679;49.000;8.390;2022-07-18T05:56:52;100912.91;;;25.55;34.34
37390;BME280;39679;49.000;8.390;2022-07-18T06:01:52;100910.22;;;25.55;34.20
37390;BME280;39679;49.000;8.390;2022-07-18T06:06:53;100906.66;;;25.54;34.23
37390;BME280;39679;49.000;8.390;2022-07-18T06:11:53;100912.03;;;25.54;34.59
37390;BME280;39679;49.000;8.390;2022-07-18T06:16:53;100904.78;;;25.56;34.48
37390;BME280;39679;49.000;8.390;2022-07-18T06:21:54;100910.16;;;25.56;34.46
37390;BME280;39679;49.000;8.390;2022-07-18T06:26:54;100912.91;;;25.55;34.62
37390;BME280;39679;49.000;8.390;2022-07-18T06:31:55;100906.56;;;25.56;34.48
37390;BME280;39679;49.000;8.390;2022-07-18T06:36:55;100904.84;;;25.55;34.36
37390;BME280;39679;49.000;8.390;2022-07-18T06:41:55;100911.03;;;25.57;34.46
37390;BME280;39679;49.000;8.390;2022-07-18T06:46:56;100914.63;;;25.56;34.50
37390;BME280;39679;49.000;8.390;2022-07-18T06:51:56;100903.91;;;25.56;34.49
37390;BME280;39679;49.000;8.390;2022-07-18T06:56:57;100915.50;;;25.56;34.35
37390;BME280;39679;49.000;8.390;2022-07-18T07:01:57;100915.59;;;25.55;34.30
37390;BME280;39679;49.000;8.390;2022-07-18T07:06:57;100907.53;;;25.55;34.15
37390;BME280;39679;49.000;8.390;2022-07-18T07:11:58;100910.16;;;25.56;34.46
37390;BME280;39679;49.000;8.390;2022-07-18T07:16:58;100911.94;;;25.56;34.26
37390;BME280;39679;49.000;8.390;2022-07-18T07:21:58;100911.94;;;25.56;34.69
37390;BME280;39679;49.000;8.390;2022-07-18T07:26:59;100909.25;;;25.56;34.53
37390;BME280;39679;49.000;8.390;2022-07-18T07:31:59;100910.16;;;25.56;34.43
37390;BME280;39679;49.000;8.390;2022-07-18T07:36:59;100916.47;;;25.55;34.30
37390;BME280;39679;49.000;8.390;2022-07-18T07:42:00;100915.50;;;25.56;34.52
37390;BME280;39679;49.000;8.390;2022-07-18T07:47:00;100917.31;;;25.56;34.53
37390;BME280;39679;49.000;8.390;2022-07-18T07:52:00;100907.47;;;25.56;34.32
37390;BME280;39679;49.000;8.390;2022-07-18T07:57:01;100907.47;;;25.56;34.50
37390;BME280;39679;49.000;8.390;2022-07-18T08:02:01;100912.81;;;25.56;34.72
37390;BME280;39679;49.000;8.390;2022-07-18T08:07:02;100903.84;;;25.57;34.86
37390;BME280;39679;49.000;8.390;2022-07-18T08:12:02;100892.25;;;25.57;34.64
37390;BME280;39679;49.000;8.390;2022-07-18T08:17:03;100890.44;;;25.57;34.85
37390;BME280;39679;49.000;8.390;2022-07-18T08:22:03;100888.59;;;25.58;34.83
37390;BME280;39679;49.000;8.390;2022-07-18T08:27:03;100889.56;;;25.57;34.43
37390;BME280;39679;49.000;8.390;2022-07-18T08:32:04;100894.91;;;25.57;34.61
37390;BME280;39679;49.000;8.390;2022-07-18T08:37:04;100886.78;;;25.58;34.88
37390;BME280;39679;49.000;8.390;2022-07-18T08:42:06;100885.91;;;25.58;34.79
37390;BME280;39679;49.000;8.390;2022-07-18T08:47:08;100885.00;;;25.59;34.88
37390;BME280;39679;49.000;8.390;2022-07-18T08:52:08;100874.25;;;25.59;34.78
37390;BME280;39679;49.000;8.390;2022-07-18T08:57:09;100872.44;;;25.59;35.15
37390;BME280;39679;49.000;8.390;2022-07-18T09:02:09;100870.63;;;25.60;35.02
37390;BME280;39679;49.000;8.390;2022-07-18T09:07:11;100863.44;;;25.60;34.94
37390;BME280;39679;49.000;8.390;2022-07-18T09:12:22;100862.56;;;25.60;35.01
37390;BME280;39679;49.000;8.390;2022-07-18T09:17:25;100863.44;;;25.60;34.77
37390;BME280;39679;49.000;8.390;2022-07-18T09:22:28;100861.63;;;25.61;34.64
37390;BME280;39679;49.000;8.390;2022-07-18T09:27:37;100868.72;;;25.62;34.77
37390;BME280;39679;49.000;8.390;2022-07-18T09:32:39;100858.88;;;25.62;34.83
37390;BME280;39679;49.000;8.390;2022-07-18T09:37:52;100857.06;;;25.63;34.75
37390;BME280;39679;49.000;8.390;2022-07-18T09:42:54;100854.31;;;25.64;34.59
37390;BME280;39679;49.000;8.390;2022-07-18T09:47:57;100848.94;;;25.64;34.63
37390;BME280;39679;49.000;8.390;2022-07-18T09:53:05;100839.09;;;25.65;34.76
37390;BME280;39679;49.000;8.390;2022-07-18T09:58:07;100831.03;;;25.65;34.49
37390;BME280;39679;49.000;8.390;2022-07-18T10:03:08;100838.13;;;25.66;34.66
37390;BME280;39679;49.000;8.390;2022-07-18T10:08:15;100839.00;;;25.66;34.58
37390;BME280;39679;49.000;8.390;2022-07-18T10:13:17;100839.88;;;25.67;34.67
37390;BME280;39679;49.000;8.390;2022-07-18T10:18:20;100824.66;;;25.67;34.47
37390;BME280;39679;49.000;8.390;2022-07-18T10:23:31;100823.69;;;25.68;34.28
37390;BME280;39679;49.000;8.390;2022-07-18T10:28:32;100819.13;;;25.70;34.61
37390;BME280;39679;49.000;8.390;2022-07-18T10:33:37;100817.41;;;25.69;34.14
37390;BME280;39679;49.000;8.390;2022-07-18T10:38:40;100818.22;;;25.71;34.13
37390;BME280;39679;49.000;8.390;2022-07-18T10:43:59;100797.56;;;25.72;34.13
37390;BME280;39679;49.000;8.390;2022-07-18T10:49:00;100804.69;;;25.73;33.92
37390;BME280;39679;49.000;8.390;2022-07-18T10:54:05;100801.91;;;25.76;34.10
37390;BME280;39679;49.000;8.390;2022-07-18T10:59:16;100796.53;;;25.76;33.66
37390;BME280;39679;49.000;8.390;2022-07-18T11:04:30;100785.72;;;25.77;33.92
37390;BME280;39679;49.000;8.390;2022-07-18T11:15:00;100783.81;;;25.79;33.80
37390;BME280;39679;49.000;8.390;2022-07-18T11:25:33;100777.44;;;25.82;33.76
37390;BME280;39679;49.000;8.390;2022-07-18T11:30:34;100767.53;;;25.82;33.63
37390;BME280;39679;49.000;8.390;2022-07-18T11:35:34;100764.81;;;25.84;33.85
37390;BME280;39679;49.000;8.390;2022-07-18T11:40:46;100759.44;;;25.84;33.26
37390;BME280;39679;49.000;8.390;2022-07-18T11:45:46;100765.53;;;25.87;33.31
37390;BME280;39679;49.000;8.390;2022-07-18T11:50:47;100758.34;;;25.88;33.34
37390;BME280;39679;49.000;8.390;2022-07-18T11:55:47;100752.09;;;25.87;33.35
37390;BME280;39679;49.000;8.390;2022-07-18T12:00:48;100748.47;;;25.88;33.61
37390;BME280;39679;49.000;8.390;2022-07-18T12:05:53;100743.88;;;25.90;32.89
37390;BME280;39679;49.000;8.390;2022-07-18T12:16:02;100732.13;;;25.93;33.27
37390;BME280;39679;49.000;8.390;2022-07-18T12:21:09;100727.56;;;25.95;32.73
37390;BME280;39679;49.000;8.390;2022-07-18T12:26:25;100727.44;;;25.98;32.86
37390;BME280;39679;49.000;8.390;2022-07-18T12:31:40;100722.84;;;26.00;33.25
37390;BME280;39679;49.000;8.390;2022-07-18T12:36:57;100722.69;;;26.03;33.26
37390;BME280;39679;49.000;8.390;2022-07-18T12:41:58;100716.25;;;26.07;33.36
37390;BME280;39679;49.000;8.390;2022-07-18T12:46:59;100712.56;;;26.09;33.23
37390;BME280;39679;49.000;8.390;2022-07-18T12:51:59;100711.47;;;26.13;33.21
37390;BME280;39679;49.000;8.390;2022-07-18T12:56:59;100707.41;;;25.68;31.12
37390;BME280;39679;49.000;8.390;2022-07-18T13:02:00;100713.88;;;25.05;31.22
37390;BME280;39679;49.000;8.390;2022-07-18T13:07:00;100706.97;;;24.59;31.46
37390;BME280;39679;49.000;8.390;2022-07-18T13:12:01;100707.41;;;24.28;31.29
37390;BME280;39679;49.000;8.390;2022-07-18T13:17:01;100706.59;;;24.05;31.24
37390;BME280;39679;49.000;8.390;2022-07-18T13:22:02;100704.44;;;23.91;31.01
37390;BME280;39679;49.000;8.390;2022-07-18T13:27:04;100692.66;;;23.73;31.25
37390;BME280;39679;49.000;8.390;2022-07-18T13:32:04;100694.53;;;23.93;31.61
37390;BME280;39679;49.000;8.390;2022-07-18T13:37:05;100691.34;;;24.28;32.05
37390;BME280;39679;49.000;8.390;2022-07-18T13:42:05;100688.22;;;24.59;31.83
37390;BME280;39679;49.000;8.390;2022-07-18T13:47:05;100692.59;;;24.82;31.94
37390;BME280;39679;49.000;8.390;2022-07-18T13:52:06;100672.22;;;24.98;31.66
37390;BME280;39679;49.000;8.390;2022-07-18T13:57:06;100682.38;;;25.10;31.89
37390;BME280;39679;49.000;8.390;2022-07-18T14:02:07;100678.34;;;25.20;31.66
37390;BME280;39679;49.000;8.390;2022-07-18T14:07:07;100670.88;;;25.26;32.02
37390;BME280;39679;49.000;8.390;2022-07-18T14:12:08;100657.19;;;25.32;31.64
37390;BME280;39679;49.000;8.390;2022-07-18T14:17:08;100664.06;;;25.38;31.96
37390;BME280;39679;49.000;8.390;2022-07-18T14:22:08;100645.09;;;25.43;32.27
37390;BME280;39679;49.000;8.390;2022-07-18T14:27:09;100645.81;;;25.46;32.24
37390;BME280;39679;49.000;8.390;2022-07-18T14:32:09;100640.25;;;25.51;32.34
37390;BME280;39679;49.000;8.390;2022-07-18T14:37:09;100628.50;;;25.53;32.62
37390;BME280;39679;49.000;8.390;2022-07-18T14:42:10;100630.09;;;25.57;32.29
37390;BME280;39679;49.000;8.390;2022-07-18T14:47:10;100634.41;;;25.60;32.76
37390;BME280;39679;49.000;8.390;2022-07-18T14:52:11;100622.69;;;25.62;32.34
37390;BME280;39679;49.000;8.390;2022-07-18T14:57:11;100615.41;;;25.64;32.65
37390;BME280;39679;49.000;8.390;2022-07-18T15:02:11;100611.72;;;25.67;32.56
37390;BME280;39679;49.000;8.390;2022-07-18T15:07:12;100612.50;;;25.69;32.61
37390;BME280;39679;49.000;8.390;2022-07-18T15:12:12;100616.00;;;25.71;32.77
37390;BME280;39679;49.000;8.390;2022-07-18T15:17:13;100619.38;;;25.74;32.69
37390;BME280;39679;49.000;8.390;2022-07-18T15:22:13;100613.97;;;25.76;32.60
37390;BME280;39679;49.000;8.390;2022-07-18T15:27:14;100611.13;;;25.79;32.67
37390;BME280;39679;49.000;8.390;2022-07-18T15:32:16;100617.38;;;25.79;32.42
37390;BME280;39679;49.000;8.390;2022-07-18T15:37:17;100609.22;;;25.81;32.47
37390;BME280;39679;49.000;8.390;2022-07-18T15:42:17;100601.03;;;25.84;32.58
37390;BME280;39679;49.000;8.390;2022-07-18T15:47:17;100601.81;;;25.86;32.56
37390;BME280;39679;49.000;8.390;2022-07-18T15:52:18;100587.44;;;25.87;32.70
37390;BME280;39679;49.000;8.390;2022-07-18T15:57:18;100590.91;;;25.89;32.48
37390;BME280;39679;49.000;8.390;2022-07-18T16:02:18;100578.28;;;25.91;32.57
37390;BME280;39679;49.000;8.390;2022-07-18T16:07:19;100576.47;;;25.91;32.63
37390;BME280;39679;49.000;8.390;2022-07-18T16:12:19;100567.41;;;25.94;32.45
37390;BME280;39679;49.000;8.390;2022-07-18T16:17:20;100564.72;;;25.94;32.52
37390;BME280;39679;49.000;8.390;2022-07-18T16:22:20;100562.81;;;25.96;32.58
37390;BME280;39679;49.000;8.390;2022-07-18T16:27:21;100556.47;;;25.97;33.00
37390;BME280;39679;49.000;8.390;2022-07-18T16:32:21;100554.69;;;25.97;32.63
37390;BME280;39679;49.000;8.390;2022-07-18T16:37:21;100553.66;;;26.00;32.73
37390;BME280;39679;49.000;8.390;2022-07-18T16:42:22;100543.75;;;26.00;32.78
37390;BME280;39679;49.000;8.390;2022-07-18T16:47:23;100534.78;;;26.01;32.76
37390;BME280;39679;49.000;8.390;2022-07-18T16:52:23;100535.56;;;26.03;32.90
37390;BME280;39679;49.000;8.390;2022-07-18T16:57:24;100537.28;;;26.04;33.07
37390;BME280;39679;49.000;8.390;2022-07-18T17:02:24;100532.78;;;26.05;32.48
37390;BME280;39679;49.000;8.390;2022-07-18T17:07:25;100537.19;;;26.07;32.69
37390;BME280;39679;49.000;8.390;2022-07-18T17:12:26;100533.56;;;26.08;32.48
37390;BME280;39679;49.000;8.390;2022-07-18T17:17:27;100534.41;;;26.09;32.58
37390;BME280;39679;49.000;8.390;2022-07-18T17:22:29;100525.41;;;26.10;32.33
37390;BME280;39679;49.000;8.390;2022-07-18T17:27:29;100520.81;;;26.12;32.13
37390;BME280;39679;49.000;8.390;2022-07-18T17:32:30;100517.19;;;26.13;32.53
37390;BME280;39679;49.000;8.390;2022-07-18T17:37:31;100515.38;;;26.13;32.36
37390;BME280;39679;49.000;8.390;2022-07-18T17:42:32;100523.34;;;26.15;32.31
37390;BME280;39679;49.000;8.390;2022-07-18T17:47:33;100510.78;;;26.16;32.18
37390;BME280;39679;49.000;8.390;2022-07-18T17:52:34;100516.06;;;26.17;32.01
37390;BME280;39679;49.000;8.390;2022-07-18T17:57:35;100517.81;;;26.18;32.31
37390;BME280;39679;49.000;8.390;2022-07-18T18:02:36;100517.81;;;26.18;32.04
37390;BME280;39679;49.000;8.390;2022-07-18T18:07:36;100516.84;;;26.19;32.47
37390;BME280;39679;49.000;8.390;2022-07-18T18:12:36;100523.09;;;26.20;32.41
37390;BME280;39679;49.000;8.390;2022-07-18T18:17:37;100516.78;;;26.21;32.65
37390;BME280;39679;49.000;8.390;2022-07-18T18:22:37;100518.50;;;26.22;32.51
37390;BME280;39679;49.000;8.390;2022-07-18T18:27:38;100520.28;;;26.23;32.35
37390;BME280;39679;49.000;8.390;2022-07-18T18:32:39;100524.69;;;26.24;32.42
37390;BME280;39679;49.000;8.390;2022-07-18T18:37:40;100531.84;;;26.23;32.31
37390;BME280;39679;49.000;8.390;2022-07-18T18:42:40;100527.38;;;26.24;32.44
37390;BME280;39679;49.000;8.390;2022-07-18T18:47:41;100521.06;;;26.25;32.45
37390;BME280;39679;49.000;8.390;2022-07-18T18:52:41;100529.13;;;26.25;32.53
37390;BME280;39679;49.000;8.390;2022-07-18T18:57:43;100526.34;;;26.26;32.19
37390;BME280;39679;49.000;8.390;2022-07-18T19:02:44;100523.66;;;26.26;32.63
37390;BME280;39679;49.000;8.390;2022-07-18T19:07:45;100529.03;;;26.26;32.67
37390;BME280;39679;49.000;8.390;2022-07-18T19:12:46;100525.38;;;26.27;32.50
37390;BME280;39679;49.000;8.390;2022-07-18T19:17:46;100528.06;;;26.27;32.41
37390;BME280;39679;49.000;8.390;2022-07-18T19:22:46;100518.19;;;26.28;32.88
37390;BME280;39679;49.000;8.390;2022-07-18T19:27:48;100529.81;;;26.28;32.77
37390;BME280;39679;49.000;8.390;2022-07-18T19:32:48;100528.94;;;26.28;32.93
37390;BME280;39679;49.000;8.390;2022-07-18T19:37:49;100530.59;;;26.30;33.21
37390;BME280;39679;49.000;8.390;2022-07-18T19:42:49;100532.50;;;26.28;32.88
37390;BME280;39679;49.000;8.390;2022-07-18T19:47:50;100529.72;;;26.30;33.10
37390;BME280;39679;49.000;8.390;2022-07-18T19:52:50;100536.84;;;26.31;33.13
37390;BME280;39679;49.000;8.390;2022-07-18T19:57:50;100542.22;;;26.31;33.03
37390;BME280;39679;49.000;8.390;2022-07-18T20:02:51;100546.63;;;26.32;33.10
37390;BME280;39679;49.000;8.390;2022-07-18T20:07:51;100541.25;;;26.32;33.31
37390;BME280;39679;49.000;8.390;2022-07-18T20:12:52;100540.31;;;26.33;33.08
37390;BME280;39679;49.000;8.390;2022-07-18T20:17:52;100533.09;;;26.33;33.21
37390;BME280;39679;49.000;8.390;2022-07-18T20:22:53;100543.84;;;26.33;33.28
37390;BME280;39679;49.000;8.390;2022-07-18T20:27:53;100541.16;;;26.33;33.38
37390;BME280;39679;49.000;8.390;2022-07-18T20:32:54;100536.59;;;26.35;33.05
37390;BME280;39679;49.000;8.390;2022-07-18T20:37:54;100539.22;;;26.37;33.27
37390;BME280;39679;49.000;8.390;2022-07-18T20:42:54;100524.81;;;26.38;33.42
37390;BME280;39679;49.000;8.390;2022-07-18T20:47:55;100528.47;;;26.37;33.36
37390;BME280;39679;49.000;8.390;2022-07-18T20:52:55;100533.84;;;26.37;33.41
37390;BME280;39679;49.000;8.390;2022-07-18T20:57:56;100535.56;;;26.38;33.51
37390;BME280;39679;49.000;8.390;2022-07-18T21:02:56;100522.91;;;26.40;33.43
37390;BME280;39679;49.000;8.390;2022-07-18T21:07:57;100524.66;;;26.41;33.42
37390;BME280;39679;49.000;8.390;2022-07-18T21:12:57;100529.16;;;26.40;33.65
37390;BME280;39679;49.000;8.390;2022-07-18T21:17:57;100520.16;;;26.41;33.25
37390;BME280;39679;49.000;8.390;2022-07-18T21:22:58;100524.56;;;26.42;33.57
37390;BME280;39679;49.000;8.390;2022-07-18T21:27:58;100526.31;;;26.43;33.84
37390;BME280;39679;49.000;8.390;2022-07-18T21:32:59;100527.59;;;26.19;34.48
37390;BME280;39679;49.000;8.390;2022-07-18T21:37:59;100520.88;;;25.22;33.41
37390;BME280;39679;49.000;8.390;2022-07-18T21:43:00;100527.63;;;24.54;33.07
37390;BME280;39679;49.000;8.390;2022-07-18T21:48:00;100535.44;;;24.20;32.47
37390;BME280;39679;49.000;8.390;2022-07-18T21:53:01;100525.56;;;24.01;32.38
37390;BME280;39679;49.000;8.390;2022-07-18T21:58:01;100529.56;;;23.91;31.78
37390;BME280;39679;49.000;8.390;2022-07-18T22:03:01;100531.81;;;23.80;31.50
37390;BME280;39679;49.000;8.390;2022-07-18T22:08:02;100532.34;;;23.67;31.18
37390;BME280;39679;49.000;8.390;2022-07-18T22:13:02;100527.75;;;23.49;31.11
37390;BME280;39679;49.000;8.390;2022-07-18T22:18:03;100525.59;;;23.37;31.34
37390;BME280;39679;49.000;8.390;2022-07-18T22:23:03;100528.88;;;23.22;30.89
37390;BME280;39679;49.000;8.390;2022-07-18T22:28:03;100527.41;;;23.14;30.65
37390;BME280;39679;49.000;8.390;2022-07-18T22:33:04;100527.78;;;23.05;31.04
37390;BME280;39679;49.000;8.390;2022-07-18T22:38:04;100525.47;;;22.96;30.99
37390;BME280;39679;49.000;8.390;2022-07-18T22:43:05;100531.06;;;22.89;30.60
37390;BME280;39679;49.000;8.390;2022-07-18T22:48:05;100527.75;;;22.83;30.92
37390;BME280;39679;49.000;8.390;2022-07-18T22:53:06;100523.63;;;22.74;30.86
37390;BME280;39679;49.000;8.390;2022-07-18T22:58:06;100509.22;;;22.54;30.72
37390;BME280;39679;49.000;8.390;2022-07-18T23:03:07;100513.03;;;22.24;31.45
37390;BME280;39679;49.000;8.390;2022-07-18T23:08:11;100513.72;;;22.04;31.10
37390;BME280;39679;49.000;8.390;2022-07-18T23:13:12;100512.53;;;21.88;31.49
37390;BME280;39679;49.000;8.390;2022-07-18T23:18:13;100509.28;;;21.78;31.58
37390;BME280;39679;49.000;8.390;2022-07-18T23:23:13;100501.56;;;21.71;31.35
37390;BME280;39679;49.000;8.390;2022-07-18T23:28:14;100504.47;;;21.63;31.39
37390;BME280;39679;49.000;8.390;2022-07-18T23:33:14;100493.13;;;21.57;31.56
37390;BME280;39679;49.000;8.390;2022-07-18T23:38:15;100497.97;;;21.46;31.84
37390;BME280;39679;49.000;8.390;2022-07-18T23:43:15;100492.84;;;21.40;31.56
37390;BME280;39679;49.000;8.390;2022-07-18T23:48:16;100494.81;;;21.33;31.52
37390;BME280;39679;49.000;8.390;2022-07-18T23:53:16;100497.75;;;21.25;31.72
37390;BME280;39679;49.000;8.390;2022-07-18T23:58:16;100493.38;;;21.23;31.75
